createdAt,value
2018-12-23T00:00:05.055Z,8.00
2018-12-23T00:02:39.303Z,8.00
2018-12-23T00:05:14.488Z,8.00
2018-12-23T00:07:48.824Z,8.00
2018-12-23T00:10:23.154Z,8.10
2018-12-23T00:12:57.346Z,8.20
2018-12-23T00:15:31.647Z,8.30
2018-12-23T00:18:05.866Z,8.20
2018-12-23T00:20:40.194Z,8.20
2018-12-23T00:23:14.405Z,8.20
2018-12-23T00:25:48.781Z,8.30
2018-12-23T00:28:23.042Z,8.20
2018-12-23T00:30:57.257Z,8.20
2018-12-23T00:33:31.573Z,8.20
2018-12-23T00:36:05.960Z,8.20
2018-12-23T00:38:40.342Z,8.20
2018-12-23T00:41:14.537Z,8.20
2018-12-23T00:43:48.770Z,8.20
2018-12-23T00:46:23.214Z,8.20
2018-12-23T00:48:57.520Z,8.10
2018-12-23T00:51:31.922Z,8.20
2018-12-23T00:54:06.194Z,8.30
2018-12-23T00:56:40.423Z,8.30
2018-12-23T00:59:14.767Z,8.20
2018-12-23T01:01:49.084Z,8.30
2018-12-23T01:04:23.283Z,8.30
2018-12-23T01:06:57.769Z,8.30
2018-12-23T01:09:32.062Z,8.30
2018-12-23T01:12:07.048Z,8.40
2018-12-23T01:14:41.384Z,8.40
2018-12-23T01:17:15.886Z,8.40
2018-12-23T01:19:50.142Z,8.30
2018-12-23T01:22:24.373Z,8.30
2018-12-23T01:24:58.670Z,8.20
2018-12-23T01:27:33.018Z,8.10
2018-12-23T01:30:07.380Z,8.10
2018-12-23T01:32:41.731Z,8.10
2018-12-23T01:35:16.167Z,8.10
2018-12-23T01:37:50.553Z,8.00
2018-12-23T01:40:24.933Z,8.00
2018-12-23T01:42:59.154Z,8.00
2018-12-23T01:45:33.382Z,8.10
2018-12-23T01:48:07.893Z,8.00
2018-12-23T01:50:42.209Z,8.10
2018-12-23T01:53:16.476Z,8.00
2018-12-23T01:55:50.802Z,8.10
2018-12-23T01:58:25.057Z,8.10
2018-12-23T02:00:59.444Z,8.10
2018-12-23T02:03:33.774Z,8.10
2018-12-23T02:06:08.073Z,8.00
2018-12-23T02:08:42.408Z,8.00
2018-12-23T02:11:16.808Z,8.00
2018-12-23T02:13:51.147Z,8.10
2018-12-23T02:16:25.529Z,8.00
2018-12-23T02:18:59.995Z,8.00
2018-12-23T02:21:34.450Z,8.00
2018-12-23T02:24:08.662Z,8.00
2018-12-23T02:26:44.634Z,7.90
2018-12-23T02:29:18.983Z,7.90
2018-12-23T02:31:54.091Z,7.80
2018-12-23T02:34:28.358Z,7.80
2018-12-23T02:37:05.591Z,7.80
2018-12-23T02:39:39.822Z,7.80
2018-12-23T02:42:14.633Z,7.80
2018-12-23T02:44:49.262Z,7.70
2018-12-23T02:47:23.561Z,7.70
2018-12-23T02:49:57.895Z,7.70
2018-12-23T02:52:32.259Z,7.70
2018-12-23T02:55:06.673Z,7.70
2018-12-23T02:57:40.888Z,7.70
2018-12-23T03:00:15.095Z,7.70
2018-12-23T03:02:49.539Z,7.70
2018-12-23T03:05:23.814Z,7.70
2018-12-23T03:07:58.079Z,7.70
2018-12-23T03:10:32.520Z,7.70
2018-12-23T03:13:06.746Z,7.70
2018-12-23T03:15:41.082Z,7.70
2018-12-23T03:18:15.438Z,7.70
2018-12-23T03:20:49.982Z,7.70
2018-12-23T03:23:24.288Z,7.70
2018-12-23T03:25:58.646Z,7.60
2018-12-23T03:28:33.162Z,7.70
2018-12-23T03:31:07.596Z,7.60
2018-12-23T03:33:41.948Z,7.60
2018-12-23T03:36:16.483Z,7.60
2018-12-23T03:38:50.890Z,7.60
2018-12-23T03:41:25.518Z,7.60
2018-12-23T03:43:59.897Z,7.70
2018-12-23T03:46:34.276Z,7.70
2018-12-23T03:49:08.891Z,7.70
2018-12-23T03:51:43.112Z,7.60
2018-12-23T03:54:17.367Z,7.70
2018-12-23T03:56:51.624Z,7.70
2018-12-23T03:59:25.993Z,7.70
2018-12-23T04:02:00.237Z,7.70
2018-12-23T04:04:34.714Z,7.70
2018-12-23T04:07:08.950Z,7.70
2018-12-23T04:09:43.211Z,7.70
2018-12-23T04:12:17.501Z,7.80
2018-12-23T04:14:51.882Z,7.70
2018-12-23T04:17:26.237Z,7.70
2018-12-23T04:20:00.483Z,7.70
2018-12-23T04:22:44.533Z,7.70
2018-12-23T04:25:19.573Z,7.70
2018-12-23T04:27:59.536Z,7.60
2018-12-23T04:33:29.734Z,7.70
2018-12-23T04:36:08.989Z,7.70
2018-12-23T04:38:43.883Z,7.60
2018-12-23T04:41:30.415Z,7.70
2018-12-23T04:44:21.681Z,7.70
2018-12-23T04:50:15.494Z,7.70
2018-12-23T04:52:50.706Z,7.70
2018-12-23T04:55:47.783Z,7.60
2018-12-23T04:58:30.809Z,7.60
2018-12-23T05:01:05.847Z,7.70
2018-12-23T05:03:43.247Z,7.60
2018-12-23T05:06:28.196Z,7.60
2018-12-23T05:09:03.480Z,7.50
2018-12-23T05:11:40.804Z,7.40
2018-12-23T05:14:16.984Z,7.40
2018-12-23T05:16:52.424Z,7.40
2018-12-23T05:19:27.387Z,7.40
2018-12-23T05:24:55.448Z,7.30
2018-12-23T05:27:30.130Z,7.30
2018-12-23T05:30:16.135Z,7.30
2018-12-23T05:32:51.237Z,7.30
2018-12-23T05:35:26.561Z,7.20
2018-12-23T05:38:01.345Z,7.20
2018-12-23T05:40:51.438Z,7.20
2018-12-23T05:43:40.359Z,7.20
2018-12-23T05:46:30.354Z,7.20
2018-12-23T05:49:05.223Z,7.30
2018-12-23T05:51:48.000Z,7.30
2018-12-23T05:54:34.386Z,7.30
2018-12-23T05:57:09.967Z,7.30
2018-12-23T05:59:44.817Z,7.20
2018-12-23T06:03:15.309Z,7.30
2018-12-23T06:10:22.061Z,7.30
2018-12-23T06:13:31.048Z,7.30
2018-12-23T06:16:34.701Z,7.30
2018-12-23T06:19:59.240Z,7.20
2018-12-23T06:22:49.023Z,7.20
2018-12-23T06:25:46.860Z,7.10
2018-12-23T06:28:45.379Z,7.10
2018-12-23T06:31:41.546Z,7.10
2018-12-23T06:34:30.279Z,7.10
2018-12-23T06:37:20.785Z,7.20
2018-12-23T06:40:09.216Z,7.20
2018-12-23T06:42:58.508Z,7.20
2018-12-23T06:45:47.803Z,7.20
2018-12-23T06:48:37.391Z,7.10
2018-12-23T06:51:26.761Z,7.00
2018-12-23T06:54:16.410Z,7.00
2018-12-23T06:57:05.734Z,7.00
2018-12-23T06:59:55.434Z,7.00
2018-12-23T07:03:04.221Z,6.90
2018-12-23T07:05:53.611Z,7.00
2018-12-23T07:08:42.980Z,7.00
2018-12-23T07:11:32.623Z,7.10
2018-12-23T07:14:20.493Z,7.10
2018-12-23T07:17:09.855Z,7.10
2018-12-23T07:19:59.402Z,7.00
2018-12-23T07:22:49.065Z,7.10
2018-12-23T07:25:38.377Z,7.10
2018-12-23T07:28:27.685Z,7.10
2018-12-23T07:31:36.071Z,7.10
2018-12-23T07:34:25.582Z,7.10
2018-12-23T07:37:15.028Z,7.10
2018-12-23T07:40:04.414Z,7.10
2018-12-23T07:42:53.979Z,7.10
2018-12-23T07:45:43.350Z,7.10
2018-12-23T07:48:32.938Z,7.00
2018-12-23T07:51:22.320Z,7.00
2018-12-23T07:54:11.643Z,7.00
2018-12-23T07:57:00.934Z,7.00
2018-12-23T07:59:50.339Z,7.00
2018-12-23T08:02:39.738Z,7.00
2018-12-23T08:05:29.065Z,7.00
2018-12-23T08:08:36.040Z,7.10
2018-12-23T08:11:25.522Z,7.10
2018-12-23T08:14:14.913Z,7.20
2018-12-23T08:17:08.122Z,7.20
2018-12-23T08:19:57.712Z,7.20
2018-12-23T08:22:47.027Z,7.30
2018-12-23T08:25:35.710Z,7.30
2018-12-23T08:28:25.545Z,7.30
2018-12-23T08:31:14.843Z,7.40
2018-12-23T08:34:02.664Z,7.40
2018-12-23T08:36:54.952Z,7.40
2018-12-23T08:39:44.380Z,7.50
2018-12-23T08:42:32.258Z,7.50
2018-12-23T08:45:24.589Z,7.50
2018-12-23T08:48:14.176Z,7.60
2018-12-23T08:51:01.732Z,7.60
2018-12-23T08:53:49.658Z,7.60
2018-12-23T08:56:38.974Z,7.70
2018-12-23T08:59:28.368Z,7.70
2018-12-23T09:02:16.198Z,7.80
2018-12-23T09:05:04.551Z,7.80
2018-12-23T09:07:54.192Z,7.90
2018-12-23T09:11:02.678Z,7.90
2018-12-23T09:14:09.648Z,8.00
2018-12-23T09:16:59.395Z,8.00
2018-12-23T09:19:47.546Z,8.00
2018-12-23T09:22:37.238Z,8.10
2018-12-23T09:25:26.941Z,8.10
2018-12-23T09:28:16.314Z,8.20
2018-12-23T09:31:05.655Z,8.30
2018-12-23T09:33:54.973Z,8.30
2018-12-23T09:36:44.426Z,8.40
2018-12-23T09:39:32.437Z,8.40
2018-12-23T09:42:22.952Z,8.50
2018-12-23T09:45:12.563Z,8.50
2018-12-23T09:48:20.934Z,8.60
2018-12-23T09:51:10.329Z,8.80
2018-12-23T09:53:59.639Z,8.80
2018-12-23T09:56:47.550Z,8.90
2018-12-23T09:59:55.936Z,9.00
2018-12-23T10:02:45.853Z,9.00
2018-12-23T10:05:35.623Z,9.00
2018-12-23T10:08:25.017Z,9.00
2018-12-23T10:11:14.399Z,9.20
2018-12-23T10:14:03.761Z,9.20
2018-12-23T10:16:53.068Z,9.30
2018-12-23T10:19:42.625Z,9.30
2018-12-23T10:22:51.035Z,9.30
2018-12-23T10:25:40.341Z,9.40
2018-12-23T10:28:29.641Z,9.40
2018-12-23T10:31:19.039Z,9.40
2018-12-23T10:34:27.577Z,9.40
2018-12-23T10:37:28.291Z,9.50
2018-12-23T10:40:16.131Z,9.50
2018-12-23T10:43:05.791Z,9.50
2018-12-23T10:45:55.085Z,9.50
2018-12-23T10:48:44.365Z,9.50
2018-12-23T10:51:34.012Z,9.70
2018-12-23T10:54:23.655Z,9.80
2018-12-23T10:57:13.055Z,9.80
2018-12-23T11:00:02.733Z,9.80
2018-12-23T11:02:52.107Z,9.80
2018-12-23T11:05:41.466Z,9.80
2018-12-23T11:08:30.769Z,9.90
2018-12-23T11:11:20.158Z,10.00
2018-12-23T11:14:09.446Z,10.00
2018-12-23T11:16:58.742Z,10.10
2018-12-23T11:20:07.847Z,10.00
2018-12-23T11:22:57.746Z,10.10
2018-12-23T11:25:47.134Z,10.10
2018-12-23T11:28:36.443Z,10.10
2018-12-23T11:31:25.778Z,10.00
2018-12-23T11:34:15.320Z,10.00
2018-12-23T11:37:32.948Z,9.90
2018-12-23T11:40:40.780Z,9.90
2018-12-23T11:43:30.179Z,9.90
2018-12-23T11:46:41.403Z,9.90
2018-12-23T11:49:50.506Z,9.80
2018-12-23T11:55:30.629Z,9.80
2018-12-23T11:58:18.837Z,9.80
2018-12-23T12:01:08.763Z,9.80
2018-12-23T12:03:58.600Z,9.70
2018-12-23T12:07:07.209Z,9.70
2018-12-23T12:13:57.265Z,9.40
2018-12-23T12:16:47.952Z,9.20
2018-12-23T12:19:42.560Z,9.10
2018-12-23T12:24:19.537Z,9.00
2018-12-23T12:27:56.412Z,8.90
2018-12-23T12:30:45.104Z,8.80
2018-12-23T12:36:44.552Z,8.70
2018-12-23T12:39:34.450Z,8.70
2018-12-23T12:42:24.356Z,8.70
2018-12-23T12:48:56.797Z,8.80
2018-12-23T12:55:20.056Z,8.70
2018-12-23T12:58:09.681Z,8.60
2018-12-23T13:00:59.209Z,8.60
2018-12-23T13:03:48.796Z,8.60
2018-12-23T13:06:38.454Z,8.60
2018-12-23T13:09:28.050Z,8.60
2018-12-23T13:12:17.368Z,8.60
2018-12-23T13:15:06.930Z,8.60
2018-12-23T13:17:56.655Z,8.60
2018-12-23T13:21:06.086Z,8.60
2018-12-23T13:23:55.584Z,8.60
2018-12-23T13:27:04.060Z,8.60
2018-12-23T13:29:53.798Z,8.60
2018-12-23T13:32:43.198Z,8.60
2018-12-23T13:35:54.674Z,8.60
2018-12-23T13:38:44.014Z,8.50
2018-12-23T13:42:11.515Z,8.50
2018-12-23T13:45:39.034Z,8.50
2018-12-23T13:49:06.517Z,8.50
2018-12-23T13:52:34.084Z,8.50
2018-12-23T13:59:38.924Z,8.40
2018-12-23T14:02:50.581Z,8.30
2018-12-23T14:06:18.178Z,8.30
2018-12-23T14:09:45.661Z,8.30
2018-12-23T14:12:35.049Z,8.10
2018-12-23T14:15:24.385Z,8.00
2018-12-23T14:18:13.696Z,8.00
2018-12-23T14:21:22.158Z,8.00
2018-12-23T14:24:11.524Z,7.90
2018-12-23T14:27:01.046Z,7.90
2018-12-23T14:29:51.465Z,7.90
2018-12-23T14:32:40.767Z,7.80
2018-12-23T14:38:38.602Z,7.80
2018-12-23T14:41:28.101Z,7.80
2018-12-23T14:44:17.418Z,7.80
2018-12-23T14:47:06.905Z,7.70
2018-12-23T14:49:56.284Z,7.70
2018-12-23T14:52:47.467Z,7.70
2018-12-23T14:57:04.878Z,7.70
2018-12-23T14:59:52.801Z,7.70
2018-12-23T15:02:41.852Z,7.70
2018-12-23T15:05:30.012Z,7.70
2018-12-23T15:08:17.946Z,7.80
2018-12-23T15:11:05.942Z,7.70
2018-12-23T15:13:54.258Z,7.70
2018-12-23T15:16:42.841Z,7.60
2018-12-23T15:19:30.457Z,7.50
2018-12-23T15:22:18.209Z,7.60
2018-12-23T15:25:06.658Z,7.60
2018-12-23T15:27:54.441Z,7.60
2018-12-23T15:30:42.260Z,7.60
2018-12-23T15:33:30.385Z,7.60
2018-12-23T15:36:20.177Z,7.60
2018-12-23T15:39:08.945Z,7.60
2018-12-23T15:41:56.901Z,7.60
2018-12-23T15:44:45.459Z,7.60
2018-12-23T15:47:33.782Z,7.60
2018-12-23T15:50:23.830Z,7.70
2018-12-23T15:53:11.927Z,7.70
2018-12-23T15:56:00.094Z,7.60
2018-12-23T15:58:48.214Z,7.70
2018-12-23T16:01:36.156Z,7.80
2018-12-23T16:04:24.189Z,7.90
2018-12-23T16:07:11.959Z,7.90
2018-12-23T16:10:00.187Z,7.90
2018-12-23T16:12:48.365Z,7.90
2018-12-23T16:15:36.774Z,7.90
2018-12-23T16:18:25.135Z,7.90
2018-12-23T16:21:13.529Z,7.90
2018-12-23T16:24:01.717Z,8.00
2018-12-23T16:26:49.694Z,8.00
2018-12-23T16:29:37.737Z,8.00
2018-12-23T16:32:26.158Z,7.90
2018-12-23T16:35:14.179Z,8.00
2018-12-23T16:38:02.510Z,8.00
2018-12-23T16:40:50.649Z,8.10
2018-12-23T16:43:38.902Z,8.20
2018-12-23T16:46:26.490Z,8.30
2018-12-23T16:49:14.342Z,8.30
2018-12-23T16:52:02.342Z,8.50
2018-12-23T16:54:50.334Z,8.60
2018-12-23T16:57:38.945Z,8.60
2018-12-23T17:00:27.097Z,8.80
2018-12-23T17:03:15.724Z,9.00
2018-12-23T17:06:03.905Z,9.10
2018-12-23T17:08:52.185Z,9.20
2018-12-23T17:11:40.055Z,9.20
2018-12-23T17:14:27.912Z,9.30
2018-12-23T17:17:16.637Z,9.30
2018-12-23T17:20:05.798Z,9.30
2018-12-23T17:22:56.486Z,9.30
2018-12-23T17:25:44.445Z,9.30
2018-12-23T17:28:32.702Z,9.40
2018-12-23T17:31:20.655Z,9.50
2018-12-23T17:34:08.564Z,9.60
2018-12-23T17:36:56.391Z,9.50
2018-12-23T17:39:44.681Z,9.60
2018-12-23T17:42:32.683Z,9.50
2018-12-23T17:45:20.670Z,9.60
2018-12-23T17:48:08.293Z,9.60
2018-12-23T17:50:56.495Z,9.70
2018-12-23T17:53:44.144Z,9.60
2018-12-23T17:56:32.055Z,9.60
2018-12-23T17:59:21.766Z,9.70
2018-12-23T18:02:09.601Z,9.80
2018-12-23T18:04:57.827Z,9.70
2018-12-23T18:07:45.810Z,9.80
2018-12-23T18:10:35.295Z,9.80
2018-12-23T18:13:23.409Z,9.90
2018-12-23T18:16:11.934Z,9.90
2018-12-23T18:19:00.198Z,9.90
2018-12-23T18:21:48.188Z,10.00
2018-12-23T18:24:36.287Z,10.00
2018-12-23T18:27:24.571Z,10.00
2018-12-23T18:30:12.683Z,10.10
2018-12-23T18:33:00.743Z,10.10
2018-12-23T18:35:48.388Z,10.10
2018-12-23T18:38:36.359Z,10.10
2018-12-23T18:41:23.908Z,10.10
2018-12-23T18:44:11.619Z,10.10
2018-12-23T18:46:59.577Z,10.20
2018-12-23T18:49:47.365Z,10.20
2018-12-23T18:52:35.497Z,10.30
2018-12-23T18:55:23.845Z,10.30
2018-12-23T18:58:11.958Z,10.30
2018-12-23T19:01:02.307Z,10.30
2018-12-23T19:03:50.355Z,10.30
2018-12-23T19:06:38.665Z,10.40
2018-12-23T19:09:47.985Z,10.40
2018-12-23T19:13:19.935Z,10.40
2018-12-23T19:16:44.764Z,10.50
2018-12-23T19:20:19.733Z,10.50
2018-12-23T19:23:36.855Z,10.50
2018-12-23T19:26:58.295Z,10.50
2018-12-23T19:30:24.539Z,10.60
2018-12-23T19:33:37.665Z,10.60
2018-12-23T19:37:06.353Z,10.70
2018-12-23T19:40:38.598Z,10.70
2018-12-23T19:43:55.576Z,10.70
2018-12-23T19:47:19.844Z,10.70
2018-12-23T19:50:39.560Z,10.80
2018-12-23T19:53:58.260Z,10.70
2018-12-23T19:57:30.245Z,10.80
2018-12-23T20:00:46.654Z,10.80
2018-12-23T20:04:10.109Z,10.90
2018-12-23T20:07:38.230Z,10.90
2018-12-23T20:10:59.215Z,10.90
2018-12-23T20:14:22.842Z,11.00
2018-12-23T20:17:57.747Z,11.00
2018-12-23T20:21:29.416Z,11.00
2018-12-23T20:24:45.372Z,11.00
2018-12-23T20:28:14.354Z,11.00
2018-12-23T20:31:54.194Z,11.00
2018-12-23T20:35:28.949Z,11.00
2018-12-23T20:39:00.891Z,11.20
2018-12-23T20:42:31.963Z,11.10
2018-12-23T20:45:59.541Z,11.20
2018-12-23T20:49:48.841Z,11.20
2018-12-23T20:53:38.636Z,11.20
2018-12-23T21:01:20.224Z,11.20
2018-12-23T21:04:57.155Z,11.20
2018-12-23T21:08:43.514Z,11.30
2018-12-23T21:12:07.090Z,11.30
2018-12-23T21:15:41.553Z,11.30
2018-12-23T21:18:48.514Z,11.30
2018-12-23T21:21:52.232Z,11.30
2018-12-23T21:25:13.005Z,11.40
2018-12-23T21:28:42.841Z,11.40
2018-12-23T21:32:25.203Z,11.40
2018-12-23T21:35:50.326Z,11.40
2018-12-23T21:39:28.697Z,11.40
2018-12-23T21:42:52.960Z,11.30
2018-12-23T21:46:25.472Z,11.40
2018-12-23T21:49:59.484Z,11.40
2018-12-23T21:53:40.757Z,11.40
2018-12-23T21:57:23.804Z,11.40
2018-12-23T22:01:12.273Z,11.40
2018-12-23T22:04:40.229Z,11.30
2018-12-23T22:08:30.494Z,11.30
2018-12-23T22:11:33.500Z,11.30
2018-12-23T22:14:21.522Z,11.30
2018-12-23T22:17:09.768Z,11.30
2018-12-23T22:19:57.656Z,11.20
2018-12-23T22:22:45.578Z,11.20
2018-12-23T22:25:34.702Z,11.20
2018-12-23T22:28:24.163Z,11.10
2018-12-23T22:31:12.342Z,11.20
2018-12-23T22:34:00.605Z,11.20
2018-12-23T22:36:48.471Z,11.20
2018-12-23T22:39:36.368Z,11.20
2018-12-23T22:42:24.559Z,11.20
2018-12-23T22:45:12.551Z,11.20
2018-12-23T22:48:00.293Z,11.20
2018-12-23T22:50:48.472Z,11.30
2018-12-23T22:53:36.410Z,11.40
2018-12-23T22:56:24.193Z,11.40
2018-12-23T22:59:11.961Z,11.40
2018-12-23T23:02:00.182Z,11.30
2018-12-23T23:04:47.767Z,11.30
2018-12-23T23:07:36.014Z,11.30
2018-12-23T23:10:24.016Z,11.40
2018-12-23T23:13:18.435Z,11.40
2018-12-23T23:16:01.506Z,11.40
2018-12-23T23:18:49.542Z,11.50
2018-12-23T23:21:37.627Z,11.40
2018-12-23T23:24:25.475Z,11.40
2018-12-23T23:27:13.547Z,11.40
2018-12-23T23:30:01.565Z,11.40
2018-12-23T23:32:49.491Z,11.40
2018-12-23T23:35:37.090Z,11.40
2018-12-23T23:38:25.908Z,11.50
2018-12-23T23:41:14.111Z,11.50
2018-12-23T23:44:02.442Z,11.50
2018-12-23T23:46:50.374Z,11.60
2018-12-23T23:49:38.419Z,11.60
2018-12-23T23:52:26.076Z,11.60
2018-12-23T23:55:14.027Z,11.60
2018-12-23T23:58:01.863Z,11.60
